Карточка аэропорта UHMM

Внимание!
Информация на этой странице в стадии наполнения.
Если вы не увидели какой-то информации, или заметили неточность - пожалуйста сообщите нам!
Спасибо!
Команда RU-STAFF
Название аэропортаСокол
Название аэропорта (англ.)Sokol
Превышение574 ft. (175 m.)
Координаты59°54.648', 150°43.2'
Высота перехода2500m
Эшелон переходаQFE>=744mm: FL100; 744mm>QFE>=717mm: FL110; QFE<717mm: FL120
Коды ответчика6540-6577
Зона ОрВДМагадан РПИ (UHMM)
Данные METARUHMM 140730Z 27002MPS 230V330 9999 BKN036 05/M01 Q1008 R10/19//60 NOSIG RMK QFE741 R28/31002MPS 240V360
Проноз погоды (TAF)UHMM 140500Z 1406/1512 36005G10MPS 9999 SCT010 BKN020CB TEMPO 1406/1415 3100 -SHSN TEMPO 1415/1424 0500 FZFG VV003
NOTAMshow/hide NOTAM
AWOS   TABLE

Информация о ВПП


Диспетчерские позиции

Позывной Наименование органа УВД Частота
UHMM_TWRМагадан-Вышка120.8
UHMM_APPМагадан-Подход119.3



Спутниковое изображение